createdAt,value
2023-06-05T00:00:12.232Z,217.39
2023-06-05T00:01:12.243Z,214.58
2023-06-05T00:02:12.326Z,216.15
2023-06-05T00:03:12.257Z,216.50
2023-06-05T00:04:12.376Z,215.20
2023-06-05T00:05:12.207Z,214.60
2023-06-05T00:06:12.211Z,213.90
2023-06-05T00:07:12.179Z,214.10
2023-06-05T00:08:12.185Z,212.81
2023-06-05T00:09:12.175Z,216.00
2023-06-05T00:10:12.151Z,213.40
2023-06-05T00:11:12.182Z,215.25
2023-06-05T00:12:12.156Z,214.62
2023-06-05T00:13:12.140Z,213.06
2023-06-05T00:14:12.148Z,212.71
2023-06-05T00:15:12.131Z,210.63
2023-06-05T00:16:12.184Z,213.49
2023-06-05T00:17:12.103Z,211.49
2023-06-05T00:18:12.197Z,211.43
2023-06-05T00:19:12.291Z,211.81
2023-06-05T00:20:12.089Z,214.16
2023-06-05T00:21:12.132Z,218.63
2023-06-05T00:22:12.085Z,219.77
2023-06-05T00:23:12.079Z,222.64
2023-06-05T00:24:12.072Z,222.55
2023-06-05T00:25:12.134Z,224.92
2023-06-05T00:26:12.069Z,223.05
2023-06-05T00:27:12.046Z,222.05
2023-06-05T00:28:12.049Z,221.97
2023-06-05T00:29:12.062Z,221.37
2023-06-05T00:30:12.024Z,221.62
2023-06-05T00:31:12.123Z,220.74
2023-06-05T00:32:12.003Z,220.70
2023-06-05T00:33:12.031Z,218.65
2023-06-05T00:34:12.004Z,217.20
2023-06-05T00:35:11.989Z,216.24
2023-06-05T00:36:11.989Z,215.76
2023-06-05T00:37:11.972Z,214.80
2023-06-05T00:38:11.958Z,214.14
2023-06-05T00:39:11.967Z,214.35
2023-06-05T00:40:11.954Z,215.60
2023-06-05T00:41:11.979Z,221.55
2023-06-05T00:42:11.956Z,219.93
2023-06-05T00:43:11.946Z,219.36
2023-06-05T00:44:11.921Z,217.60
2023-06-05T00:45:11.935Z,214.84
2023-06-05T00:46:12.009Z,212.18
2023-06-05T00:47:11.919Z,213.79
2023-06-05T00:48:11.952Z,213.24
2023-06-05T00:49:11.910Z,215.10
2023-06-05T00:50:11.890Z,217.30
2023-06-05T00:51:11.928Z,216.05
2023-06-05T00:52:11.869Z,216.40
2023-06-05T00:53:11.872Z,215.92
2023-06-05T00:54:11.941Z,214.11
2023-06-05T00:55:11.858Z,213.69
2023-06-05T00:56:11.842Z,213.67
2023-06-05T00:57:11.857Z,210.17
2023-06-05T00:58:11.844Z,210.89
2023-06-05T00:59:11.845Z,211.62
2023-06-05T01:00:11.822Z,207.63
2023-06-05T01:01:11.959Z,206.98
2023-06-05T01:02:11.861Z,206.69
2023-06-05T01:03:11.958Z,206.61
2023-06-05T01:04:11.802Z,205.22
2023-06-05T01:05:11.798Z,201.95
2023-06-05T01:06:11.803Z,203.20
2023-06-05T01:07:11.804Z,201.23
2023-06-05T01:08:11.777Z,201.48
2023-06-05T01:09:11.800Z,204.07
2023-06-05T01:10:11.789Z,206.13
2023-06-05T01:11:11.764Z,209.91
2023-06-05T01:12:11.754Z,214.88
2023-06-05T01:13:11.753Z,215.67
2023-06-05T01:14:11.739Z,218.22
2023-06-05T01:15:11.746Z,217.98
2023-06-05T01:16:11.758Z,216.95
2023-06-05T01:17:11.839Z,213.51
2023-06-05T01:18:11.721Z,213.90
2023-06-05T01:19:11.700Z,213.90
2023-06-05T01:20:11.693Z,216.79
2023-06-05T01:21:11.690Z,218.11
2023-06-05T01:22:11.689Z,218.10
2023-06-05T01:23:11.674Z,217.99
2023-06-05T01:24:11.670Z,217.74
2023-06-05T01:25:11.660Z,217.39
2023-06-05T01:26:11.661Z,216.23
2023-06-05T01:27:11.665Z,213.59
2023-06-05T01:28:11.647Z,217.12
2023-06-05T01:29:11.653Z,217.22
2023-06-05T01:30:11.631Z,219.75
2023-06-05T01:31:11.792Z,220.79
2023-06-05T01:32:11.615Z,219.09
2023-06-05T01:33:11.666Z,218.26
2023-06-05T01:34:11.598Z,221.78
2023-06-05T01:35:11.610Z,220.66
2023-06-05T01:36:11.581Z,220.76
2023-06-05T01:37:11.588Z,222.49
2023-06-05T01:38:11.575Z,220.76
2023-06-05T01:39:11.566Z,219.84
2023-06-05T01:40:11.571Z,218.75
2023-06-05T01:41:11.586Z,220.43
2023-06-05T01:42:11.556Z,219.80
2023-06-05T01:43:11.548Z,220.23
2023-06-05T01:44:11.529Z,221.48
2023-06-05T01:45:11.534Z,223.14
2023-06-05T01:46:11.523Z,223.32
2023-06-05T01:47:11.521Z,224.35
2023-06-05T01:48:11.524Z,227.72
2023-06-05T01:49:11.510Z,226.81
2023-06-05T01:50:11.486Z,226.74
2023-06-05T01:51:11.488Z,224.01
2023-06-05T01:52:11.485Z,224.02
2023-06-05T01:53:11.479Z,224.31
2023-06-05T01:54:11.478Z,223.54
2023-06-05T01:55:11.461Z,224.35
2023-06-05T01:56:11.460Z,223.80
2023-06-05T01:57:11.453Z,224.62
2023-06-05T01:58:11.441Z,225.11
2023-06-05T01:59:11.420Z,224.26
2023-06-05T02:00:11.437Z,223.19
2023-06-05T02:01:11.424Z,224.43
2023-06-05T02:02:11.443Z,222.13
2023-06-05T02:03:11.533Z,223.82
2023-06-05T02:04:11.487Z,222.96
2023-06-05T02:05:11.407Z,222.35
2023-06-05T02:06:11.390Z,222.94
2023-06-05T02:07:11.374Z,222.39
2023-06-05T02:08:11.373Z,220.97
2023-06-05T02:09:11.376Z,220.57
2023-06-05T02:10:11.374Z,220.32
2023-06-05T02:11:11.455Z,221.96
2023-06-05T02:12:11.390Z,221.20
2023-06-05T02:13:11.340Z,221.60
2023-06-05T02:14:11.319Z,220.97
2023-06-05T02:15:11.323Z,219.30
2023-06-05T02:16:11.327Z,218.32
2023-06-05T02:17:11.299Z,217.82
2023-06-05T02:18:11.297Z,219.73
2023-06-05T02:19:11.299Z,219.35
2023-06-05T02:20:11.292Z,218.00
2023-06-05T02:21:11.360Z,218.46
2023-06-05T02:22:11.265Z,218.89
2023-06-05T02:23:11.250Z,220.16
2023-06-05T02:24:11.300Z,220.35
2023-06-05T02:25:11.252Z,219.64
2023-06-05T02:26:11.251Z,219.38
2023-06-05T02:27:11.248Z,218.84
2023-06-05T02:28:11.231Z,220.21
2023-06-05T02:29:11.222Z,220.20
2023-06-05T02:30:11.214Z,222.80
2023-06-05T02:31:11.515Z,221.31
2023-06-05T02:32:11.211Z,223.01
2023-06-05T02:33:11.179Z,222.04
2023-06-05T02:34:11.203Z,222.09
2023-06-05T02:35:11.168Z,222.65
2023-06-05T02:36:11.171Z,222.32
2023-06-05T02:37:11.175Z,220.93
2023-06-05T02:38:11.151Z,220.36
2023-06-05T02:39:11.143Z,218.57
2023-06-05T02:40:11.137Z,219.62
2023-06-05T02:41:11.212Z,219.78
2023-06-05T02:42:11.129Z,219.95
2023-06-05T02:43:11.114Z,219.89
2023-06-05T02:44:11.108Z,219.78
2023-06-05T02:45:11.119Z,219.27
2023-06-05T02:46:11.203Z,218.84
2023-06-05T02:47:11.144Z,215.14
2023-06-05T02:48:11.085Z,215.31
2023-06-05T02:49:11.096Z,215.48
2023-06-05T02:50:11.072Z,219.34
2023-06-05T02:51:11.055Z,217.07
2023-06-05T02:52:11.057Z,216.64
2023-06-05T02:53:11.044Z,216.99
2023-06-05T02:54:11.667Z,214.00
2023-06-05T02:55:11.041Z,214.33
2023-06-05T02:56:11.035Z,215.26
2023-06-05T02:57:11.045Z,217.88
2023-06-05T02:58:11.001Z,219.57
2023-06-05T02:59:10.995Z,217.83
2023-06-05T03:00:11.009Z,214.86
2023-06-05T03:01:11.178Z,212.23
2023-06-05T03:02:10.996Z,213.18
2023-06-05T03:03:11.046Z,211.91
2023-06-05T03:04:10.979Z,210.86
2023-06-05T03:05:10.963Z,213.74
2023-06-05T03:06:10.955Z,216.83
2023-06-05T03:07:10.953Z,217.36
2023-06-05T03:08:10.965Z,216.73
2023-06-05T03:09:10.949Z,213.69
2023-06-05T03:10:10.921Z,214.44
2023-06-05T03:11:11.266Z,212.55
2023-06-05T03:12:10.937Z,213.36
2023-06-05T03:13:10.914Z,217.21
2023-06-05T03:14:10.955Z,217.65
2023-06-05T03:15:10.925Z,214.95
2023-06-05T03:16:10.990Z,215.06
2023-06-05T03:17:10.947Z,218.35
2023-06-05T03:18:10.996Z,220.87
2023-06-05T03:19:10.940Z,223.13
2023-06-05T03:20:11.022Z,221.96
2023-06-05T03:21:11.017Z,223.43
2023-06-05T03:22:10.975Z,222.08
2023-06-05T03:23:10.987Z,222.49
2023-06-05T03:24:10.996Z,221.64
2023-06-05T03:25:11.004Z,221.13
2023-06-05T03:26:11.023Z,222.63
2023-06-05T03:27:11.000Z,224.97
2023-06-05T03:28:11.011Z,225.70
2023-06-05T03:29:11.029Z,228.27
2023-06-05T03:30:11.033Z,229.07
2023-06-05T03:31:11.037Z,232.83
2023-06-05T03:32:11.050Z,234.85
2023-06-05T03:33:11.162Z,236.44
2023-06-05T03:34:11.088Z,236.45
2023-06-05T03:35:11.053Z,235.97
2023-06-05T03:36:11.066Z,236.66
2023-06-05T03:37:11.072Z,235.50
2023-06-05T03:38:11.097Z,236.24
2023-06-05T03:39:11.118Z,235.90
2023-06-05T03:40:11.201Z,237.69
2023-06-05T03:41:11.311Z,236.56
2023-06-05T03:42:11.135Z,237.82
2023-06-05T03:43:11.162Z,238.80
2023-06-05T03:44:11.154Z,235.51
2023-06-05T03:45:11.161Z,237.65
2023-06-05T03:46:11.211Z,238.93
2023-06-05T03:47:11.204Z,239.64
2023-06-05T03:48:11.201Z,239.48
2023-06-05T03:49:11.225Z,239.93
2023-06-05T03:50:11.239Z,240.30
2023-06-05T03:51:11.345Z,241.45
2023-06-05T03:52:11.251Z,239.92
2023-06-05T03:53:11.265Z,239.93
2023-06-05T03:54:11.301Z,239.45
2023-06-05T03:55:11.280Z,241.09
2023-06-05T03:56:11.304Z,241.40
2023-06-05T03:57:11.303Z,243.29
2023-06-05T03:58:11.309Z,244.21
2023-06-05T03:59:11.322Z,242.34
2023-06-05T04:00:11.428Z,242.76
2023-06-05T04:01:11.529Z,243.39
2023-06-05T04:02:11.461Z,244.31
2023-06-05T04:03:11.457Z,244.58
2023-06-05T04:04:11.425Z,244.57
2023-06-05T04:05:11.397Z,244.96
2023-06-05T04:06:11.428Z,242.52
2023-06-05T04:07:11.453Z,241.83
2023-06-05T04:08:11.451Z,242.07
2023-06-05T04:09:11.462Z,241.48
2023-06-05T04:10:11.486Z,242.19
2023-06-05T04:11:11.490Z,242.48
2023-06-05T04:12:11.523Z,242.31
2023-06-05T04:13:11.531Z,242.39
2023-06-05T04:14:11.527Z,241.38
2023-06-05T04:15:11.621Z,239.87
2023-06-05T04:16:11.596Z,240.94
2023-06-05T04:17:11.645Z,240.95
2023-06-05T04:18:11.612Z,241.35
2023-06-05T04:19:11.597Z,239.99
2023-06-05T04:20:11.642Z,239.84
2023-06-05T04:21:11.621Z,238.69
2023-06-05T04:22:11.650Z,240.08
2023-06-05T04:23:11.660Z,240.05
2023-06-05T04:24:11.774Z,239.17
2023-06-05T04:25:11.706Z,239.78
2023-06-05T04:26:11.716Z,239.94
2023-06-05T04:27:11.740Z,239.31
2023-06-05T04:28:11.763Z,241.96
2023-06-05T04:29:11.763Z,241.07
2023-06-05T04:30:11.785Z,240.01
2023-06-05T04:31:11.998Z,242.52
2023-06-05T04:32:11.820Z,241.51
2023-06-05T04:33:11.834Z,243.81
2023-06-05T04:34:11.847Z,244.80
2023-06-05T04:35:11.857Z,245.98
2023-06-05T04:36:11.862Z,247.65
2023-06-05T04:37:11.897Z,249.64
2023-06-05T04:38:11.910Z,250.00
2023-06-05T04:39:11.925Z,249.44
2023-06-05T04:40:11.942Z,248.70
2023-06-05T04:41:11.926Z,250.00
2023-06-05T04:42:15.536Z,250.00
2023-06-05T04:43:11.934Z,250.07
2023-06-05T04:44:11.928Z,250.37
2023-06-05T04:45:11.945Z,251.03
2023-06-05T04:46:11.969Z,252.06
2023-06-05T04:47:11.914Z,252.29
2023-06-05T04:48:11.939Z,249.94
2023-06-05T04:49:11.897Z,249.21
2023-06-05T04:50:11.901Z,248.93
2023-06-05T04:51:11.879Z,249.61
2023-06-05T04:52:11.882Z,249.30
2023-06-05T04:53:11.906Z,249.18
2023-06-05T04:54:11.877Z,248.85
2023-06-05T04:55:12.719Z,249.39
2023-06-05T04:56:12.118Z,249.50
2023-06-05T04:57:12.096Z,249.58
2023-06-05T04:58:12.083Z,249.71
2023-06-05T04:59:12.075Z,248.95
2023-06-05T05:00:12.067Z,250.16
2023-06-05T05:01:12.085Z,250.00
2023-06-05T05:02:12.178Z,248.59
2023-06-05T05:03:12.123Z,249.69
2023-06-05T05:04:12.178Z,248.30
2023-06-05T05:05:12.147Z,250.00
2023-06-05T05:06:12.150Z,249.58
2023-06-05T05:07:12.185Z,249.44
2023-06-05T05:08:12.199Z,248.68
2023-06-05T05:09:12.214Z,248.75
2023-06-05T05:10:12.221Z,248.01
2023-06-05T05:11:12.249Z,249.42
2023-06-05T05:12:12.236Z,248.46
2023-06-05T05:13:12.267Z,248.63
2023-06-05T05:14:12.274Z,249.71
2023-06-05T05:15:12.292Z,249.78
2023-06-05T05:16:12.329Z,248.75
2023-06-05T05:17:12.338Z,248.38
2023-06-05T05:18:12.332Z,248.16
2023-06-05T05:19:12.390Z,248.21
2023-06-05T05:20:12.381Z,248.68
2023-06-05T05:21:12.418Z,247.41
2023-06-05T05:22:12.429Z,249.18
2023-06-05T05:23:12.442Z,248.92
2023-06-05T05:24:12.470Z,249.41
2023-06-05T05:25:12.523Z,246.22
2023-06-05T05:26:12.556Z,250.00
2023-06-05T05:27:12.583Z,249.43
2023-06-05T05:28:12.604Z,249.85
2023-06-05T05:29:12.585Z,250.00
2023-06-05T05:30:12.630Z,250.00
2023-06-05T05:31:12.824Z,250.43
2023-06-05T05:32:12.767Z,249.41
2023-06-05T05:33:12.704Z,249.53
2023-06-05T05:34:12.707Z,246.85
2023-06-05T05:35:12.726Z,248.42
2023-06-05T05:36:12.756Z,249.96
2023-06-05T05:37:12.809Z,250.24
2023-06-05T05:38:12.847Z,249.75
2023-06-05T05:39:12.871Z,249.13
2023-06-05T05:40:12.881Z,248.25
2023-06-05T05:41:12.900Z,249.04
2023-06-05T05:42:12.922Z,250.00
2023-06-05T05:43:12.953Z,250.00
2023-06-05T05:44:13.019Z,243.55
2023-06-05T05:45:13.053Z,237.73
2023-06-05T05:46:13.096Z,236.10
2023-06-05T05:47:13.189Z,233.47
2023-06-05T05:48:13.057Z,230.12
2023-06-05T05:49:13.093Z,226.60
2023-06-05T05:50:13.167Z,223.83
2023-06-05T05:51:13.230Z,223.64
2023-06-05T05:52:13.285Z,220.26
2023-06-05T05:53:13.330Z,217.24
2023-06-05T05:54:13.358Z,215.75
2023-06-05T05:55:15.132Z,212.10
2023-06-05T05:56:13.430Z,209.12
2023-06-05T05:57:13.464Z,206.30
2023-06-05T05:58:13.465Z,205.16
2023-06-05T05:59:13.491Z,203.87
2023-06-05T06:00:13.587Z,204.70
2023-06-05T06:01:13.526Z,200.21
2023-06-05T06:02:13.583Z,199.20
2023-06-05T06:03:13.628Z,199.41
2023-06-05T06:04:13.588Z,197.61
2023-06-05T06:05:13.690Z,197.05
2023-06-05T06:06:13.599Z,197.59
2023-06-05T06:07:13.558Z,194.60
2023-06-05T06:08:13.564Z,192.92
2023-06-05T06:09:13.555Z,195.75
2023-06-05T06:10:13.570Z,195.38
2023-06-05T06:11:13.578Z,194.73
2023-06-05T06:12:13.580Z,192.65
2023-06-05T06:13:13.578Z,192.07
2023-06-05T06:14:13.597Z,190.07
2023-06-05T06:15:13.592Z,189.66
2023-06-05T06:16:13.590Z,190.44
2023-06-05T06:17:13.582Z,191.17
2023-06-05T06:18:13.683Z,188.18
2023-06-05T06:19:13.623Z,187.75
2023-06-05T06:20:13.601Z,183.97
2023-06-05T06:21:13.582Z,179.57
2023-06-05T06:22:13.619Z,178.00
2023-06-05T06:23:13.581Z,178.97
2023-06-05T06:24:13.593Z,177.73
2023-06-05T06:25:13.609Z,176.75
2023-06-05T06:26:13.594Z,175.80
2023-06-05T06:28:13.590Z,177.55
2023-06-05T06:29:13.580Z,177.04
2023-06-05T06:30:13.592Z,176.11
2023-06-05T06:31:13.604Z,175.34
2023-06-05T06:32:13.706Z,175.90
2023-06-05T06:33:13.553Z,176.56
2023-06-05T06:34:13.540Z,179.32
2023-06-05T06:35:13.532Z,177.43
2023-06-05T06:36:13.553Z,178.77
2023-06-05T06:37:13.712Z,173.98
2023-06-05T06:38:13.514Z,176.57
2023-06-05T06:39:13.487Z,177.25
2023-06-05T06:40:13.504Z,173.79
2023-06-05T06:41:13.492Z,180.71
2023-06-05T06:42:13.726Z,177.46
2023-06-05T06:43:13.473Z,172.08
2023-06-05T06:44:13.452Z,179.03
2023-06-05T06:45:13.510Z,174.47
2023-06-05T06:46:13.430Z,166.11
2023-06-05T06:47:13.468Z,167.21
2023-06-05T06:48:13.523Z,165.78
2023-06-05T06:49:13.503Z,161.35
2023-06-05T06:50:13.414Z,164.62
2023-06-05T06:51:13.409Z,159.82
2023-06-05T06:52:13.404Z,158.42
2023-06-05T06:53:13.400Z,161.09
2023-06-05T06:54:13.397Z,161.95
2023-06-05T06:55:13.391Z,159.57
2023-06-05T06:56:13.370Z,158.52
2023-06-05T06:57:13.381Z,157.91
2023-06-05T06:58:13.364Z,155.73
2023-06-05T06:59:13.353Z,159.12
2023-06-05T07:00:13.347Z,158.48
2023-06-05T07:01:13.427Z,154.97
2023-06-05T07:02:13.383Z,155.87
2023-06-05T07:03:13.377Z,151.84
2023-06-05T07:04:13.326Z,147.60
2023-06-05T07:05:13.314Z,151.26
2023-06-05T07:06:13.309Z,150.50
2023-06-05T07:07:13.317Z,152.08
2023-06-05T07:08:13.326Z,151.89
2023-06-05T07:09:13.295Z,148.76
2023-06-05T07:10:13.295Z,149.22
2023-06-05T07:11:13.270Z,148.41
2023-06-05T07:12:13.270Z,148.17
2023-06-05T07:13:13.277Z,151.57
2023-06-05T07:14:13.276Z,152.02
2023-06-05T07:15:13.273Z,147.89
2023-06-05T07:16:13.290Z,148.91
2023-06-05T07:17:13.263Z,152.50
2023-06-05T07:18:13.238Z,146.46
2023-06-05T07:19:13.255Z,149.56
2023-06-05T07:20:13.266Z,147.89
2023-06-05T07:21:13.228Z,148.27
2023-06-05T07:22:13.215Z,148.05
2023-06-05T07:23:13.219Z,149.43
2023-06-05T07:24:13.365Z,150.67
2023-06-05T07:25:13.204Z,152.01
2023-06-05T07:26:13.203Z,154.32
2023-06-05T07:27:13.256Z,152.42
2023-06-05T07:28:13.182Z,149.47
2023-06-05T07:29:13.179Z,160.51
2023-06-05T07:30:13.152Z,173.94
2023-06-05T07:31:13.226Z,187.27
2023-06-05T07:32:13.251Z,204.36
2023-06-05T07:33:29.194Z,221.32
2023-06-05T07:34:14.313Z,221.47
2023-06-05T07:35:13.278Z,223.78
2023-06-05T07:36:13.257Z,230.34
2023-06-05T07:37:13.327Z,240.98
2023-06-05T07:38:13.250Z,262.39
2023-06-05T07:39:13.255Z,251.67
2023-06-05T07:40:13.243Z,249.69
2023-06-05T07:41:13.217Z,249.85
2023-06-05T07:42:14.472Z,250.00
2023-06-05T07:43:13.197Z,249.61
2023-06-05T07:44:13.230Z,249.63
2023-06-05T07:45:13.266Z,249.81
2023-06-05T07:46:13.356Z,239.61
2023-06-05T07:47:13.769Z,234.41
2023-06-05T07:48:13.372Z,236.64
2023-06-05T07:49:13.381Z,244.90
2023-06-05T07:50:13.431Z,250.00
2023-06-05T07:51:13.476Z,249.85
2023-06-05T07:52:13.762Z,239.19
2023-06-05T07:53:13.546Z,239.15
2023-06-05T07:54:13.578Z,243.32
2023-06-05T07:55:13.564Z,241.78
2023-06-05T07:56:13.607Z,244.55
2023-06-05T07:57:13.745Z,244.99
2023-06-05T07:58:13.662Z,242.70
2023-06-05T07:59:13.685Z,236.85
2023-06-05T08:00:13.717Z,229.85
2023-06-05T08:01:13.746Z,238.49
2023-06-05T08:02:14.295Z,237.62
2023-06-05T08:03:14.009Z,235.73
2023-06-05T08:04:14.159Z,238.54
2023-06-05T08:05:13.874Z,240.43
2023-06-05T08:06:13.888Z,236.06
2023-06-05T08:07:14.245Z,236.86
2023-06-05T08:08:13.913Z,232.37
2023-06-05T08:09:13.933Z,237.65
2023-06-05T08:10:13.950Z,241.00
2023-06-05T08:11:13.953Z,241.02
2023-06-05T08:12:13.957Z,244.09
2023-06-05T08:13:13.959Z,236.54
2023-06-05T08:14:13.966Z,239.06
2023-06-05T08:15:13.976Z,240.39
2023-06-05T08:16:13.979Z,244.71
2023-06-05T08:17:14.080Z,248.97
2023-06-05T08:18:13.968Z,250.00
2023-06-05T08:19:13.979Z,250.00
2023-06-05T08:20:13.955Z,250.00
2023-06-05T08:21:13.951Z,250.00
2023-06-05T08:22:14.249Z,250.00
2023-06-05T08:23:13.966Z,250.00
2023-06-05T08:24:13.965Z,250.00
2023-06-05T08:25:14.030Z,250.00
2023-06-05T08:26:14.042Z,250.00
2023-06-05T08:27:14.109Z,249.77
2023-06-05T08:28:14.140Z,249.83
2023-06-05T08:29:14.186Z,248.72
2023-06-05T08:30:14.232Z,246.64
2023-06-05T08:31:14.307Z,244.04
2023-06-05T08:32:14.368Z,243.14
2023-06-05T08:33:14.392Z,245.62
2023-06-05T08:34:14.458Z,250.32
2023-06-05T08:35:14.522Z,249.47
2023-06-05T08:36:14.616Z,249.59
2023-06-05T08:37:14.756Z,242.37
2023-06-05T08:38:14.716Z,242.54
2023-06-05T08:39:14.778Z,244.91
2023-06-05T08:40:14.832Z,247.26
2023-06-05T08:41:14.940Z,246.68
2023-06-05T08:42:15.254Z,247.48
2023-06-05T08:43:15.026Z,248.64
2023-06-05T08:44:15.084Z,248.30
2023-06-05T08:45:15.146Z,250.00
2023-06-05T08:46:15.254Z,247.28
2023-06-05T08:47:15.800Z,240.71
2023-06-05T08:48:15.363Z,237.97
2023-06-05T08:49:15.406Z,238.14
2023-06-05T08:50:15.474Z,235.92
2023-06-05T08:51:15.537Z,238.00
2023-06-05T08:52:15.586Z,237.12
2023-06-05T08:53:17.809Z,234.78
2023-06-05T08:54:15.640Z,232.56
2023-06-05T08:55:15.664Z,233.91
2023-06-05T08:56:15.619Z,232.17
2023-06-05T08:57:15.620Z,229.75
2023-06-05T08:58:15.629Z,229.63
2023-06-05T08:59:15.622Z,230.15
2023-06-05T09:00:15.591Z,230.87
2023-06-05T09:01:15.632Z,231.46
2023-06-05T09:02:15.768Z,231.36
2023-06-05T09:03:15.593Z,222.50
2023-06-05T09:04:15.576Z,225.73
2023-06-05T09:05:15.557Z,228.09
2023-06-05T09:06:15.584Z,225.67
2023-06-05T09:07:15.773Z,224.04
2023-06-05T09:08:15.550Z,221.54
2023-06-05T09:09:15.537Z,220.72
2023-06-05T09:10:15.542Z,223.09
2023-06-05T09:11:15.535Z,223.37
2023-06-05T09:12:15.782Z,221.32
2023-06-05T09:13:15.504Z,220.34
2023-06-05T09:14:15.505Z,220.66
2023-06-05T09:15:15.500Z,222.20
2023-06-05T09:16:15.522Z,201.56
2023-06-05T09:17:15.517Z,131.00
2023-06-05T09:18:15.522Z,124.49
2023-06-05T09:19:15.492Z,137.41
2023-06-05T09:20:15.482Z,160.22
2023-06-05T09:21:15.475Z,175.17
2023-06-05T09:22:15.814Z,180.05
2023-06-05T09:23:25.150Z,182.30
2023-06-05T09:24:16.555Z,182.48
2023-06-05T09:25:15.442Z,183.20
2023-06-05T09:26:15.424Z,184.62
2023-06-05T09:27:15.429Z,167.06
2023-06-05T09:28:15.436Z,100.02
2023-06-05T09:29:15.417Z,84.31
2023-06-05T09:30:15.412Z,76.91
2023-06-05T09:31:15.421Z,71.64
2023-06-05T09:32:15.802Z,78.21
2023-06-05T09:33:15.382Z,82.94
2023-06-05T09:34:15.389Z,120.10
2023-06-05T09:35:15.370Z,140.04
2023-06-05T09:36:15.403Z,151.31
2023-06-05T09:37:15.806Z,159.50
2023-06-05T09:38:15.424Z,161.06
2023-06-05T09:39:15.450Z,172.79
2023-06-05T09:40:15.430Z,180.74
2023-06-05T09:41:15.439Z,179.57
2023-06-05T09:42:15.804Z,176.88
2023-06-05T09:43:15.432Z,178.96
2023-06-05T09:44:15.466Z,178.36
2023-06-05T09:45:15.518Z,181.79
2023-06-05T09:46:15.612Z,184.99
2023-06-05T09:47:15.712Z,189.35
2023-06-05T09:48:15.750Z,195.89
2023-06-05T09:49:15.725Z,239.58
2023-06-05T09:50:15.837Z,227.18
2023-06-05T09:51:15.880Z,215.83
2023-06-05T09:52:15.920Z,213.13
2023-06-05T09:53:15.937Z,209.19
2023-06-05T09:54:15.983Z,207.17
2023-06-05T09:55:16.044Z,205.97
2023-06-05T09:56:16.105Z,208.65
2023-06-05T09:57:16.365Z,209.73
2023-06-05T09:58:16.185Z,209.49
2023-06-05T09:59:16.229Z,210.27
2023-06-05T10:00:17.199Z,210.67
2023-06-05T10:01:16.351Z,206.76
2023-06-05T10:02:16.337Z,206.05
2023-06-05T10:03:16.399Z,197.52
2023-06-05T10:04:16.476Z,190.37
2023-06-05T10:05:16.479Z,195.35
2023-06-05T10:06:19.955Z,184.24
2023-06-05T10:07:16.543Z,187.95
2023-06-05T10:08:16.534Z,188.71
2023-06-05T10:09:16.509Z,190.91
2023-06-05T10:10:16.538Z,193.69
2023-06-05T10:11:16.510Z,196.07
2023-06-05T10:12:16.502Z,188.07
2023-06-05T10:13:18.769Z,188.27
2023-06-05T10:14:16.487Z,188.46
2023-06-05T10:15:16.482Z,189.70
2023-06-05T10:16:25.576Z,191.40
2023-06-05T10:17:17.502Z,188.75
2023-06-05T10:18:16.478Z,190.05
2023-06-05T10:19:16.450Z,192.51
2023-06-05T10:20:17.405Z,195.97
2023-06-05T10:21:16.428Z,201.76
2023-06-05T10:22:16.848Z,169.58
2023-06-05T10:23:16.411Z,124.25
2023-06-05T10:24:16.445Z,96.84
2023-06-05T10:25:16.410Z,60.13
2023-06-05T10:26:16.386Z,64.53
2023-06-05T10:27:16.381Z,75.53
2023-06-05T10:28:16.375Z,91.91
2023-06-05T10:29:16.380Z,106.23
2023-06-05T10:30:16.482Z,115.22
2023-06-05T10:31:16.400Z,126.72
2023-06-05T10:32:16.401Z,135.00
2023-06-05T10:33:16.339Z,115.97
2023-06-05T10:34:16.348Z,106.66
2023-06-05T10:35:16.329Z,122.47
2023-06-05T10:36:16.317Z,132.22
2023-06-05T10:37:16.313Z,142.28
2023-06-05T10:38:16.303Z,149.35
2023-06-05T10:39:16.306Z,150.83
2023-06-05T10:40:16.311Z,154.51
2023-06-05T10:41:16.302Z,162.17
2023-06-05T10:42:16.284Z,165.89
2023-06-05T10:43:16.289Z,172.30
2023-06-05T10:44:16.284Z,177.83
2023-06-05T10:45:16.371Z,183.07
2023-06-05T10:46:16.536Z,187.52
2023-06-05T10:47:16.305Z,192.49
2023-06-05T10:48:16.262Z,196.25
2023-06-05T10:49:16.251Z,198.00
2023-06-05T10:50:16.246Z,197.35
2023-06-05T10:51:16.249Z,197.90
2023-06-05T10:52:16.219Z,196.54
2023-06-05T10:53:16.224Z,196.67
2023-06-05T10:54:16.219Z,196.93
2023-06-05T10:55:16.227Z,196.58
2023-06-05T10:56:16.204Z,196.85
2023-06-05T10:57:16.333Z,196.34
2023-06-05T10:58:16.508Z,195.53
2023-06-05T10:59:16.176Z,197.87
2023-06-05T11:00:16.176Z,191.38
2023-06-05T11:01:16.185Z,192.83
2023-06-05T11:02:16.344Z,194.61
2023-06-05T11:03:16.183Z,194.72
2023-06-05T11:04:16.181Z,196.73
2023-06-05T11:05:16.191Z,199.29
2023-06-05T11:06:16.125Z,200.12
2023-06-05T11:07:16.333Z,199.42
2023-06-05T11:08:16.146Z,200.81
2023-06-05T11:09:16.097Z,192.05
2023-06-05T11:10:16.108Z,197.32
2023-06-05T11:11:16.140Z,197.25
2023-06-05T11:12:16.199Z,187.03
2023-06-05T11:13:16.207Z,183.04
2023-06-05T11:14:16.234Z,181.34
2023-06-05T11:15:16.464Z,183.95
2023-06-05T11:16:16.378Z,184.96
2023-06-05T11:17:17.622Z,182.73
2023-06-05T11:18:16.427Z,174.95
2023-06-05T11:19:16.457Z,155.75
2023-06-05T11:20:16.544Z,142.37
2023-06-05T11:21:16.567Z,126.17
2023-06-05T11:22:16.832Z,117.26
2023-06-05T11:23:16.672Z,118.36
2023-06-05T11:24:16.736Z,108.23
2023-06-05T11:25:16.860Z,94.28
2023-06-05T11:26:16.851Z,99.15
2023-06-05T11:27:16.841Z,97.55
2023-06-05T11:28:16.837Z,95.00
2023-06-05T11:29:16.926Z,79.06
2023-06-05T11:30:19.723Z,77.49
2023-06-05T11:31:17.869Z,70.09
2023-06-05T11:32:16.868Z,72.74
2023-06-05T11:33:17.179Z,74.43
2023-06-05T11:34:16.817Z,66.02
2023-06-05T11:35:16.809Z,67.77
2023-06-05T11:36:16.810Z,50.45
2023-06-05T11:37:16.786Z,44.68
2023-06-05T11:38:17.811Z,45.79
2023-06-05T11:39:16.773Z,44.87
2023-06-05T11:40:16.789Z,37.17
2023-06-05T11:41:16.765Z,29.45
2023-06-05T11:42:16.743Z,29.68
2023-06-05T11:43:16.758Z,27.09
2023-06-05T11:44:16.728Z,27.42
2023-06-05T11:45:16.734Z,27.63
2023-06-05T11:46:16.785Z,39.67
2023-06-05T11:47:16.761Z,30.28
2023-06-05T11:48:16.721Z,27.27
2023-06-05T11:49:16.690Z,25.92
2023-06-05T11:50:16.699Z,24.65
2023-06-05T11:51:16.686Z,27.75
2023-06-05T11:52:16.677Z,29.76
2023-06-05T11:53:16.666Z,36.64
2023-06-05T11:54:16.655Z,38.13
2023-06-05T11:55:16.732Z,40.22
2023-06-05T11:56:16.716Z,39.39
2023-06-05T11:57:16.648Z,45.85
2023-06-05T11:58:16.635Z,46.65
2023-06-05T11:59:16.639Z,38.51
2023-06-05T12:00:16.648Z,40.06
2023-06-05T12:01:16.622Z,36.00
2023-06-05T12:02:16.680Z,46.41
2023-06-05T12:03:16.880Z,44.49
2023-06-05T12:04:17.597Z,46.73
2023-06-05T12:05:16.602Z,53.82
2023-06-05T12:06:16.594Z,68.90
2023-06-05T12:07:16.596Z,85.01
2023-06-05T12:08:16.562Z,97.18
2023-06-05T12:09:16.548Z,109.78
2023-06-05T12:10:16.574Z,116.12
2023-06-05T12:11:16.533Z,138.43
2023-06-05T12:12:16.538Z,147.93
2023-06-05T12:13:16.891Z,158.71
2023-06-05T12:14:16.530Z,168.28
2023-06-05T12:15:16.534Z,172.97
2023-06-05T12:16:16.576Z,176.03
2023-06-05T12:17:16.519Z,161.24
2023-06-05T12:18:16.506Z,153.23
2023-06-05T12:19:16.836Z,151.98
2023-06-05T12:20:16.487Z,148.02
2023-06-05T12:21:16.480Z,153.39
2023-06-05T12:22:16.474Z,155.29
2023-06-05T12:23:16.483Z,158.62
2023-06-05T12:24:16.482Z,163.16
2023-06-05T12:25:21.089Z,158.73
2023-06-05T12:26:17.431Z,158.96
2023-06-05T12:27:16.437Z,160.61
2023-06-05T12:28:16.420Z,162.30
2023-06-05T12:29:16.427Z,166.66
2023-06-05T12:30:16.404Z,155.20
2023-06-05T12:31:16.458Z,123.64